sensor_id;sensor_type;location;lat;lon;timestamp;P1;durP1;ratioP1;P2;durP2;ratioP2
68583;SDS011;55557;49.220;11.150;2023-09-12T00:01:24;15.27;;;6.60;;
68583;SDS011;55557;49.220;11.150;2023-09-12T00:03:50;11.93;;;6.10;;
68583;SDS011;55557;49.220;11.150;2023-09-12T00:06:16;12.80;;;5.93;;
68583;SDS011;55557;49.220;11.150;2023-09-12T00:08:42;9.90;;;6.30;;
68583;SDS011;55557;49.220;11.150;2023-09-12T00:11:09;10.40;;;6.83;;
68583;SDS011;55557;49.220;11.150;2023-09-12T00:13:36;14.27;;;6.37;;
68583;SDS011;55557;49.220;11.150;2023-09-12T00:16:04;9.10;;;5.90;;
68583;SDS011;55557;49.220;11.150;2023-09-12T00:18:36;8.80;;;5.43;;
68583;SDS011;55557;49.220;11.150;2023-09-12T00:21:02;12.33;;;6.60;;
68583;SDS011;55557;49.220;11.150;2023-09-12T00:23:28;8.00;;;5.47;;
68583;SDS011;55557;49.220;11.150;2023-09-12T00:25:54;8.50;;;5.20;;
68583;SDS011;55557;49.220;11.150;2023-09-12T00:28:20;13.67;;;6.40;;
68583;SDS011;55557;49.220;11.150;2023-09-12T00:30:46;9.83;;;5.97;;
68583;SDS011;55557;49.220;11.150;2023-09-12T00:33:12;11.40;;;6.03;;
68583;SDS011;55557;49.220;11.150;2023-09-12T00:35:38;12.83;;;6.00;;
68583;SDS011;55557;49.220;11.150;2023-09-12T00:38:05;12.97;;;5.80;;
68583;SDS011;55557;49.220;11.150;2023-09-12T00:40:34;9.70;;;6.30;;
68583;SDS011;55557;49.220;11.150;2023-09-12T00:43:00;8.67;;;5.90;;
68583;SDS011;55557;49.220;11.150;2023-09-12T00:45:26;10.23;;;6.10;;
68583;SDS011;55557;49.220;11.150;2023-09-12T00:47:52;9.67;;;6.77;;
68583;SDS011;55557;49.220;11.150;2023-09-12T00:50:18;9.67;;;5.67;;
68583;SDS011;55557;49.220;11.150;2023-09-12T00:52:45;9.97;;;5.93;;
68583;SDS011;55557;49.220;11.150;2023-09-12T00:55:12;12.03;;;6.63;;
68583;SDS011;55557;49.220;11.150;2023-09-12T00:57:38;8.60;;;6.03;;
68583;SDS011;55557;49.220;11.150;2023-09-12T01:00:07;9.93;;;5.73;;
68583;SDS011;55557;49.220;11.150;2023-09-12T01:02:42;9.77;;;5.87;;
68583;SDS011;55557;49.220;11.150;2023-09-12T01:05:08;10.43;;;5.83;;
68583;SDS011;55557;49.220;11.150;2023-09-12T01:07:38;9.40;;;6.40;;
68583;SDS011;55557;49.220;11.150;2023-09-12T01:10:05;12.17;;;6.43;;
68583;SDS011;55557;49.220;11.150;2023-09-12T01:12:31;8.37;;;6.03;;
68583;SDS011;55557;49.220;11.150;2023-09-12T01:14:57;10.83;;;5.80;;
68583;SDS011;55557;49.220;11.150;2023-09-12T01:17:24;8.30;;;5.90;;
68583;SDS011;55557;49.220;11.150;2023-09-12T01:19:50;9.83;;;5.23;;
68583;SDS011;55557;49.220;11.150;2023-09-12T01:22:37;8.63;;;5.67;;
68583;SDS011;55557;49.220;11.150;2023-09-12T01:27:37;9.00;;;5.70;;
68583;SDS011;55557;49.220;11.150;2023-09-12T01:30:05;8.53;;;6.10;;
68583;SDS011;55557;49.220;11.150;2023-09-12T01:32:32;8.13;;;5.73;;
68583;SDS011;55557;49.220;11.150;2023-09-12T01:38:03;14.77;;;6.13;;
68583;SDS011;55557;49.220;11.150;2023-09-12T01:40:34;9.80;;;5.73;;
68583;SDS011;55557;49.220;11.150;2023-09-12T01:43:15;10.77;;;5.37;;
68583;SDS011;55557;49.220;11.150;2023-09-12T01:45:49;10.70;;;5.60;;
68583;SDS011;55557;49.220;11.150;2023-09-12T01:48:18;7.80;;;5.10;;
68583;SDS011;55557;49.220;11.150;2023-09-12T01:50:45;10.90;;;6.10;;
68583;SDS011;55557;49.220;11.150;2023-09-12T01:53:11;9.87;;;6.20;;
68583;SDS011;55557;49.220;11.150;2023-09-12T01:55:46;10.60;;;5.37;;
68583;SDS011;55557;49.220;11.150;2023-09-12T01:58:13;10.80;;;5.67;;
68583;SDS011;55557;49.220;11.150;2023-09-12T02:00:39;8.47;;;5.57;;
68583;SDS011;55557;49.220;11.150;2023-09-12T02:03:05;8.67;;;5.93;;
68583;SDS011;55557;49.220;11.150;2023-09-12T02:05:32;10.27;;;6.80;;
68583;SDS011;55557;49.220;11.150;2023-09-12T02:07:58;9.50;;;5.80;;
68583;SDS011;55557;49.220;11.150;2023-09-12T02:10:27;8.83;;;5.50;;
68583;SDS011;55557;49.220;11.150;2023-09-12T02:12:53;13.07;;;5.60;;
68583;SDS011;55557;49.220;11.150;2023-09-12T02:15:19;13.07;;;5.47;;
68583;SDS011;55557;49.220;11.150;2023-09-12T02:17:45;13.07;;;6.27;;
68583;SDS011;55557;49.220;11.150;2023-09-12T02:20:11;16.93;;;6.13;;
68583;SDS011;55557;49.220;11.150;2023-09-12T02:22:37;8.10;;;6.20;;
68583;SDS011;55557;49.220;11.150;2023-09-12T02:25:04;9.43;;;5.93;;
68583;SDS011;55557;49.220;11.150;2023-09-12T02:27:30;14.93;;;5.83;;
68583;SDS011;55557;49.220;11.150;2023-09-12T02:29:56;14.00;;;6.00;;
68583;SDS011;55557;49.220;11.150;2023-09-12T02:32:22;10.70;;;6.30;;
68583;SDS011;55557;49.220;11.150;2023-09-12T02:34:48;9.23;;;5.53;;
68583;SDS011;55557;49.220;11.150;2023-09-12T02:37:14;8.30;;;5.33;;
68583;SDS011;55557;49.220;11.150;2023-09-12T02:39:40;7.43;;;5.33;;
68583;SDS011;55557;49.220;11.150;2023-09-12T02:42:06;9.13;;;5.87;;
68583;SDS011;55557;49.220;11.150;2023-09-12T02:44:32;12.20;;;5.70;;
68583;SDS011;55557;49.220;11.150;2023-09-12T02:46:58;15.80;;;5.83;;
68583;SDS011;55557;49.220;11.150;2023-09-12T02:49:24;11.83;;;5.63;;
68583;SDS011;55557;49.220;11.150;2023-09-12T02:51:50;11.83;;;5.03;;
68583;SDS011;55557;49.220;11.150;2023-09-12T02:54:16;12.70;;;5.50;;
68583;SDS011;55557;49.220;11.150;2023-09-12T02:56:42;10.40;;;6.20;;
68583;SDS011;55557;49.220;11.150;2023-09-12T02:59:09;10.00;;;5.70;;
68583;SDS011;55557;49.220;11.150;2023-09-12T03:01:35;11.73;;;5.47;;
68583;SDS011;55557;49.220;11.150;2023-09-12T03:04:01;8.63;;;5.53;;
68583;SDS011;55557;49.220;11.150;2023-09-12T03:06:28;12.43;;;5.93;;
68583;SDS011;55557;49.220;11.150;2023-09-12T03:08:54;8.47;;;5.73;;
68583;SDS011;55557;49.220;11.150;2023-09-12T03:11:20;17.67;;;6.10;;
68583;SDS011;55557;49.220;11.150;2023-09-12T03:13:46;13.83;;;6.90;;
68583;SDS011;55557;49.220;11.150;2023-09-12T03:16:13;8.67;;;5.33;;
68583;SDS011;55557;49.220;11.150;2023-09-12T03:18:39;10.47;;;6.00;;
68583;SDS011;55557;49.220;11.150;2023-09-12T03:21:05;10.80;;;5.37;;
68583;SDS011;55557;49.220;11.150;2023-09-12T03:23:32;9.20;;;5.43;;
68583;SDS011;55557;49.220;11.150;2023-09-12T03:26:04;9.20;;;5.77;;
68583;SDS011;55557;49.220;11.150;2023-09-12T03:28:30;9.03;;;5.63;;
68583;SDS011;55557;49.220;11.150;2023-09-12T03:31:10;7.90;;;6.00;;
68583;SDS011;55557;49.220;11.150;2023-09-12T03:33:42;9.40;;;5.17;;
68583;SDS011;55557;49.220;11.150;2023-09-12T03:36:13;9.37;;;5.40;;
68583;SDS011;55557;49.220;11.150;2023-09-12T03:38:39;8.20;;;5.60;;
68583;SDS011;55557;49.220;11.150;2023-09-12T03:41:05;11.40;;;5.87;;
68583;SDS011;55557;49.220;11.150;2023-09-12T03:43:32;7.30;;;5.13;;
68583;SDS011;55557;49.220;11.150;2023-09-12T03:45:58;7.93;;;5.33;;
68583;SDS011;55557;49.220;11.150;2023-09-12T03:48:24;9.43;;;6.07;;
68583;SDS011;55557;49.220;11.150;2023-09-12T03:50:50;8.53;;;5.77;;
68583;SDS011;55557;49.220;11.150;2023-09-12T03:53:18;13.80;;;6.20;;
68583;SDS011;55557;49.220;11.150;2023-09-12T03:55:44;8.50;;;5.50;;
68583;SDS011;55557;49.220;11.150;2023-09-12T03:58:11;11.97;;;5.93;;
68583;SDS011;55557;49.220;11.150;2023-09-12T04:00:37;7.83;;;5.70;;
68583;SDS011;55557;49.220;11.150;2023-09-12T04:03:03;9.93;;;6.10;;
68583;SDS011;55557;49.220;11.150;2023-09-12T04:05:29;12.03;;;6.03;;
68583;SDS011;55557;49.220;11.150;2023-09-12T04:07:55;8.97;;;5.83;;
68583;SDS011;55557;49.220;11.150;2023-09-12T04:10:21;9.90;;;6.30;;
68583;SDS011;55557;49.220;11.150;2023-09-12T04:12:47;7.63;;;5.40;;
68583;SDS011;55557;49.220;11.150;2023-09-12T04:15:13;10.33;;;5.43;;
68583;SDS011;55557;49.220;11.150;2023-09-12T04:17:39;8.33;;;5.90;;
68583;SDS011;55557;49.220;11.150;2023-09-12T04:20:05;8.00;;;5.70;;
68583;SDS011;55557;49.220;11.150;2023-09-12T04:22:32;11.30;;;5.90;;
68583;SDS011;55557;49.220;11.150;2023-09-12T04:24:58;10.13;;;5.23;;
68583;SDS011;55557;49.220;11.150;2023-09-12T04:27:24;7.43;;;5.70;;
68583;SDS011;55557;49.220;11.150;2023-09-12T04:29:50;8.37;;;5.73;;
68583;SDS011;55557;49.220;11.150;2023-09-12T04:32:16;10.83;;;5.40;;
68583;SDS011;55557;49.220;11.150;2023-09-12T04:34:48;14.83;;;5.47;;
68583;SDS011;55557;49.220;11.150;2023-09-12T04:37:14;10.93;;;5.97;;
68583;SDS011;55557;49.220;11.150;2023-09-12T04:39:40;9.23;;;6.03;;
68583;SDS011;55557;49.220;11.150;2023-09-12T04:42:06;12.83;;;5.53;;
68583;SDS011;55557;49.220;11.150;2023-09-12T04:44:35;8.73;;;5.40;;
68583;SDS011;55557;49.220;11.150;2023-09-12T04:47:02;8.53;;;5.07;;
68583;SDS011;55557;49.220;11.150;2023-09-12T04:49:28;9.47;;;5.37;;
68583;SDS011;55557;49.220;11.150;2023-09-12T04:51:54;11.97;;;5.53;;
68583;SDS011;55557;49.220;11.150;2023-09-12T04:54:20;10.00;;;5.97;;
68583;SDS011;55557;49.220;11.150;2023-09-12T04:56:46;9.50;;;5.23;;
68583;SDS011;55557;49.220;11.150;2023-09-12T04:59:12;8.60;;;5.63;;
68583;SDS011;55557;49.220;11.150;2023-09-12T05:01:38;10.83;;;6.50;;
68583;SDS011;55557;49.220;11.150;2023-09-12T05:04:04;11.40;;;5.87;;
68583;SDS011;55557;49.220;11.150;2023-09-12T05:06:30;9.73;;;5.17;;
68583;SDS011;55557;49.220;11.150;2023-09-12T05:08:56;8.37;;;5.10;;
68583;SDS011;55557;49.220;11.150;2023-09-12T05:11:22;13.40;;;6.03;;
68583;SDS011;55557;49.220;11.150;2023-09-12T05:13:49;8.43;;;5.53;;
68583;SDS011;55557;49.220;11.150;2023-09-12T05:16:15;9.73;;;5.77;;
68583;SDS011;55557;49.220;11.150;2023-09-12T05:18:41;6.37;;;5.10;;
68583;SDS011;55557;49.220;11.150;2023-09-12T05:21:07;7.43;;;5.77;;
68583;SDS011;55557;49.220;11.150;2023-09-12T05:23:33;9.20;;;5.37;;
68583;SDS011;55557;49.220;11.150;2023-09-12T05:25:59;7.43;;;5.30;;
68583;SDS011;55557;49.220;11.150;2023-09-12T05:28:25;9.23;;;5.60;;
68583;SDS011;55557;49.220;11.150;2023-09-12T05:30:52;7.90;;;6.27;;
68583;SDS011;55557;49.220;11.150;2023-09-12T05:33:18;11.57;;;6.27;;
68583;SDS011;55557;49.220;11.150;2023-09-12T05:35:44;11.37;;;4.93;;
68583;SDS011;55557;49.220;11.150;2023-09-12T05:38:10;8.43;;;5.83;;
68583;SDS011;55557;49.220;11.150;2023-09-12T05:40:36;9.50;;;6.23;;
68583;SDS011;55557;49.220;11.150;2023-09-12T05:43:02;9.73;;;5.73;;
68583;SDS011;55557;49.220;11.150;2023-09-12T05:45:28;15.23;;;5.80;;
68583;SDS011;55557;49.220;11.150;2023-09-12T05:47:59;10.43;;;6.63;;
68583;SDS011;55557;49.220;11.150;2023-09-12T05:50:25;8.60;;;6.00;;
68583;SDS011;55557;49.220;11.150;2023-09-12T05:52:51;10.43;;;6.30;;
68583;SDS011;55557;49.220;11.150;2023-09-12T05:55:17;11.00;;;6.00;;
68583;SDS011;55557;49.220;11.150;2023-09-12T05:57:43;10.47;;;5.47;;
68583;SDS011;55557;49.220;11.150;2023-09-12T06:00:10;11.60;;;6.40;;
68583;SDS011;55557;49.220;11.150;2023-09-12T06:02:37;9.90;;;5.73;;
68583;SDS011;55557;49.220;11.150;2023-09-12T06:05:04;6.73;;;5.43;;
68583;SDS011;55557;49.220;11.150;2023-09-12T06:07:31;11.73;;;6.10;;
68583;SDS011;55557;49.220;11.150;2023-09-12T06:09:57;9.70;;;5.87;;
68583;SDS011;55557;49.220;11.150;2023-09-12T06:12:23;11.00;;;6.33;;
68583;SDS011;55557;49.220;11.150;2023-09-12T06:14:49;8.43;;;5.83;;
68583;SDS011;55557;49.220;11.150;2023-09-12T06:17:15;12.63;;;6.70;;
68583;SDS011;55557;49.220;11.150;2023-09-12T06:19:41;7.47;;;5.53;;
68583;SDS011;55557;49.220;11.150;2023-09-12T06:22:07;9.90;;;5.80;;
68583;SDS011;55557;49.220;11.150;2023-09-12T06:24:33;9.93;;;6.20;;
68583;SDS011;55557;49.220;11.150;2023-09-12T06:26:59;9.53;;;5.87;;
68583;SDS011;55557;49.220;11.150;2023-09-12T06:29:25;13.57;;;6.10;;
68583;SDS011;55557;49.220;11.150;2023-09-12T06:31:51;13.63;;;6.97;;
68583;SDS011;55557;49.220;11.150;2023-09-12T06:34:18;8.00;;;6.30;;
68583;SDS011;55557;49.220;11.150;2023-09-12T06:36:44;10.83;;;7.20;;
68583;SDS011;55557;49.220;11.150;2023-09-12T06:39:10;10.40;;;6.70;;
68583;SDS011;55557;49.220;11.150;2023-09-12T06:41:36;11.13;;;6.83;;
68583;SDS011;55557;49.220;11.150;2023-09-12T06:44:02;11.00;;;7.23;;
68583;SDS011;55557;49.220;11.150;2023-09-12T06:46:33;12.93;;;6.97;;
68583;SDS011;55557;49.220;11.150;2023-09-12T06:49:03;12.57;;;7.03;;
68583;SDS011;55557;49.220;11.150;2023-09-12T06:51:29;10.37;;;7.30;;
68583;SDS011;55557;49.220;11.150;2023-09-12T06:53:55;8.23;;;6.77;;
68583;SDS011;55557;49.220;11.150;2023-09-12T06:56:21;12.03;;;6.50;;
68583;SDS011;55557;49.220;11.150;2023-09-12T06:58:47;10.67;;;7.30;;
68583;SDS011;55557;49.220;11.150;2023-09-12T07:01:13;11.93;;;7.33;;
68583;SDS011;55557;49.220;11.150;2023-09-12T07:03:40;8.00;;;6.17;;
68583;SDS011;55557;49.220;11.150;2023-09-12T07:06:06;9.70;;;6.47;;
68583;SDS011;55557;49.220;11.150;2023-09-12T07:08:33;16.83;;;6.60;;
68583;SDS011;55557;49.220;11.150;2023-09-12T07:10:59;15.40;;;7.23;;
68583;SDS011;55557;49.220;11.150;2023-09-12T07:13:30;11.63;;;7.97;;
68583;SDS011;55557;49.220;11.150;2023-09-12T07:15:56;11.03;;;6.80;;
68583;SDS011;55557;49.220;11.150;2023-09-12T07:18:23;12.10;;;7.17;;
68583;SDS011;55557;49.220;11.150;2023-09-12T07:20:59;11.93;;;7.53;;
68583;SDS011;55557;49.220;11.150;2023-09-12T07:23:29;12.10;;;6.90;;
68583;SDS011;55557;49.220;11.150;2023-09-12T07:25:58;15.10;;;7.13;;
68583;SDS011;55557;49.220;11.150;2023-09-12T07:28:25;15.37;;;8.40;;
68583;SDS011;55557;49.220;11.150;2023-09-12T07:30:51;12.97;;;6.83;;
68583;SDS011;55557;49.220;11.150;2023-09-12T07:33:17;10.37;;;7.07;;
68583;SDS011;55557;49.220;11.150;2023-09-12T07:35:43;12.20;;;6.90;;
68583;SDS011;55557;49.220;11.150;2023-09-12T07:38:09;10.93;;;7.93;;
68583;SDS011;55557;49.220;11.150;2023-09-12T07:40:35;19.60;;;8.33;;
68583;SDS011;55557;49.220;11.150;2023-09-12T07:43:01;10.23;;;7.90;;
68583;SDS011;55557;49.220;11.150;2023-09-12T07:45:27;14.90;;;8.03;;
68583;SDS011;55557;49.220;11.150;2023-09-12T07:47:54;14.93;;;8.03;;
68583;SDS011;55557;49.220;11.150;2023-09-12T07:50:21;11.83;;;7.87;;
68583;SDS011;55557;49.220;11.150;2023-09-12T07:52:47;12.20;;;7.17;;
68583;SDS011;55557;49.220;11.150;2023-09-12T07:55:13;11.40;;;8.03;;
68583;SDS011;55557;49.220;11.150;2023-09-12T07:57:39;13.47;;;8.37;;
68583;SDS011;55557;49.220;11.150;2023-09-12T08:00:05;12.03;;;7.97;;
68583;SDS011;55557;49.220;11.150;2023-09-12T08:02:34;10.23;;;7.40;;
68583;SDS011;55557;49.220;11.150;2023-09-12T08:05:00;9.33;;;7.43;;
68583;SDS011;55557;49.220;11.150;2023-09-12T08:07:26;15.83;;;8.47;;
68583;SDS011;55557;49.220;11.150;2023-09-12T08:09:56;13.00;;;7.60;;
68583;SDS011;55557;49.220;11.150;2023-09-12T08:12:23;15.40;;;8.17;;
68583;SDS011;55557;49.220;11.150;2023-09-12T08:14:50;16.10;;;8.90;;
68583;SDS011;55557;49.220;11.150;2023-09-12T08:17:16;13.43;;;8.83;;
68583;SDS011;55557;49.220;11.150;2023-09-12T08:19:43;11.17;;;7.70;;
68583;SDS011;55557;49.220;11.150;2023-09-12T08:22:09;13.70;;;8.00;;
68583;SDS011;55557;49.220;11.150;2023-09-12T08:24:36;13.00;;;8.90;;
68583;SDS011;55557;49.220;11.150;2023-09-12T08:27:02;11.43;;;7.53;;
68583;SDS011;55557;49.220;11.150;2023-09-12T08:29:28;13.27;;;8.10;;
68583;SDS011;55557;49.220;11.150;2023-09-12T08:31:55;16.13;;;7.53;;
68583;SDS011;55557;49.220;11.150;2023-09-12T08:34:21;13.13;;;7.70;;
68583;SDS011;55557;49.220;11.150;2023-09-12T08:36:47;12.30;;;7.37;;
68583;SDS011;55557;49.220;11.150;2023-09-12T08:39:17;8.60;;;6.83;;
68583;SDS011;55557;49.220;11.150;2023-09-12T08:41:43;13.53;;;7.47;;
68583;SDS011;55557;49.220;11.150;2023-09-12T08:44:12;16.53;;;8.70;;
68583;SDS011;55557;49.220;11.150;2023-09-12T08:46:41;15.63;;;8.03;;
68583;SDS011;55557;49.220;11.150;2023-09-12T08:49:07;14.33;;;8.43;;
68583;SDS011;55557;49.220;11.150;2023-09-12T08:51:37;10.83;;;7.97;;
68583;SDS011;55557;49.220;11.150;2023-09-12T08:54:04;18.03;;;7.93;;
68583;SDS011;55557;49.220;11.150;2023-09-12T08:56:30;11.80;;;6.90;;
68583;SDS011;55557;49.220;11.150;2023-09-12T08:58:58;11.70;;;7.43;;
68583;SDS011;55557;49.220;11.150;2023-09-12T09:01:25;13.43;;;7.53;;
68583;SDS011;55557;49.220;11.150;2023-09-12T09:03:54;15.67;;;7.00;;
68583;SDS011;55557;49.220;11.150;2023-09-12T09:06:20;9.20;;;7.37;;
68583;SDS011;55557;49.220;11.150;2023-09-12T09:08:48;12.33;;;6.90;;
68583;SDS011;55557;49.220;11.150;2023-09-12T09:11:14;12.60;;;7.53;;
68583;SDS011;55557;49.220;11.150;2023-09-12T09:13:40;10.83;;;8.13;;
68583;SDS011;55557;49.220;11.150;2023-09-12T09:21:19;11.50;;;7.40;;
68583;SDS011;55557;49.220;11.150;2023-09-12T09:23:45;9.50;;;7.20;;
68583;SDS011;55557;49.220;11.150;2023-09-12T09:26:12;13.23;;;7.77;;
68583;SDS011;55557;49.220;11.150;2023-09-12T09:28:38;14.10;;;8.07;;
68583;SDS011;55557;49.220;11.150;2023-09-12T09:31:04;8.40;;;6.20;;
68583;SDS011;55557;49.220;11.150;2023-09-12T09:33:41;7.33;;;5.27;;
68583;SDS011;55557;49.220;11.150;2023-09-12T09:36:31;6.97;;;4.87;;
68583;SDS011;55557;49.220;11.150;2023-09-12T09:38:58;6.60;;;5.73;;
68583;SDS011;55557;49.220;11.150;2023-09-12T09:41:29;10.53;;;5.77;;
68583;SDS011;55557;49.220;11.150;2023-09-12T09:43:58;7.87;;;5.23;;
68583;SDS011;55557;49.220;11.150;2023-09-12T09:46:24;7.17;;;5.10;;
68583;SDS011;55557;49.220;11.150;2023-09-12T09:48:51;10.13;;;5.20;;
68583;SDS011;55557;49.220;11.150;2023-09-12T09:51:19;6.43;;;4.43;;
68583;SDS011;55557;49.220;11.150;2023-09-12T09:53:45;7.97;;;5.00;;
68583;SDS011;55557;49.220;11.150;2023-09-12T09:56:13;8.30;;;4.90;;
68583;SDS011;55557;49.220;11.150;2023-09-12T09:58:48;9.90;;;5.37;;
68583;SDS011;55557;49.220;11.150;2023-09-12T10:01:21;9.47;;;5.40;;
68583;SDS011;55557;49.220;11.150;2023-09-12T10:04:03;9.77;;;5.13;;
68583;SDS011;55557;49.220;11.150;2023-09-12T10:06:30;8.47;;;5.30;;
68583;SDS011;55557;49.220;11.150;2023-09-12T10:08:58;7.33;;;6.07;;
68583;SDS011;55557;49.220;11.150;2023-09-12T10:11:25;10.50;;;5.77;;
68583;SDS011;55557;49.220;11.150;2023-09-12T10:14:02;10.00;;;4.70;;
68583;SDS011;55557;49.220;11.150;2023-09-12T10:16:35;10.50;;;5.50;;
68583;SDS011;55557;49.220;11.150;2023-09-12T10:19:17;8.20;;;5.40;;
68583;SDS011;55557;49.220;11.150;2023-09-12T10:24:12;9.10;;;5.83;;
68583;SDS011;55557;49.220;11.150;2023-09-12T10:26:39;7.20;;;4.73;;
68583;SDS011;55557;49.220;11.150;2023-09-12T10:29:09;12.30;;;5.63;;
68583;SDS011;55557;49.220;11.150;2023-09-12T10:31:35;8.23;;;5.30;;
68583;SDS011;55557;49.220;11.150;2023-09-12T10:34:02;9.73;;;5.53;;
68583;SDS011;55557;49.220;11.150;2023-09-12T10:36:29;7.00;;;5.37;;
68583;SDS011;55557;49.220;11.150;2023-09-12T10:38:55;11.83;;;5.70;;
68583;SDS011;55557;49.220;11.150;2023-09-12T10:41:30;11.80;;;6.07;;
68583;SDS011;55557;49.220;11.150;2023-09-12T10:43:58;7.07;;;5.30;;
68583;SDS011;55557;49.220;11.150;2023-09-12T10:46:25;8.17;;;5.57;;
68583;SDS011;55557;49.220;11.150;2023-09-12T10:48:51;10.53;;;5.37;;
68583;SDS011;55557;49.220;11.150;2023-09-12T10:51:18;12.30;;;5.70;;
68583;SDS011;55557;49.220;11.150;2023-09-12T10:53:45;10.87;;;5.53;;
68583;SDS011;55557;49.220;11.150;2023-09-12T11:01:29;8.30;;;5.93;;
68583;SDS011;55557;49.220;11.150;2023-09-12T11:03:57;9.23;;;5.87;;
68583;SDS011;55557;49.220;11.150;2023-09-12T11:06:30;8.53;;;5.30;;
68583;SDS011;55557;49.220;11.150;2023-09-12T11:11:42;11.67;;;5.70;;
68583;SDS011;55557;49.220;11.150;2023-09-12T11:14:08;6.90;;;5.40;;
68583;SDS011;55557;49.220;11.150;2023-09-12T11:16:35;11.83;;;6.23;;
68583;SDS011;55557;49.220;11.150;2023-09-12T11:21:47;7.20;;;5.77;;
68583;SDS011;55557;49.220;11.150;2023-09-12T11:24:14;8.67;;;5.27;;
68583;SDS011;55557;49.220;11.150;2023-09-12T11:26:59;9.73;;;5.53;;
68583;SDS011;55557;49.220;11.150;2023-09-12T11:29:29;8.47;;;6.33;;
68583;SDS011;55557;49.220;11.150;2023-09-12T11:31:59;8.60;;;6.50;;
68583;SDS011;55557;49.220;11.150;2023-09-12T11:34:28;8.57;;;6.00;;
68583;SDS011;55557;49.220;11.150;2023-09-12T11:36:58;9.67;;;5.70;;
68583;SDS011;55557;49.220;11.150;2023-09-12T11:39:28;10.57;;;5.73;;
68583;SDS011;55557;49.220;11.150;2023-09-12T11:41:55;10.83;;;5.50;;
68583;SDS011;55557;49.220;11.150;2023-09-12T11:44:21;9.43;;;6.13;;
68583;SDS011;55557;49.220;11.150;2023-09-12T11:46:48;10.77;;;5.60;;
68583;SDS011;55557;49.220;11.150;2023-09-12T11:49:35;8.90;;;5.43;;
68583;SDS011;55557;49.220;11.150;2023-09-12T11:52:02;9.13;;;5.10;;
68583;SDS011;55557;49.220;11.150;2023-09-12T11:54:29;6.67;;;5.17;;
68583;SDS011;55557;49.220;11.150;2023-09-12T11:57:04;7.65;;;4.88;;
68583;SDS011;55557;49.220;11.150;2023-09-12T11:59:30;7.03;;;5.18;;
68583;SDS011;55557;49.220;11.150;2023-09-12T12:01:56;6.72;;;5.05;;
68583;SDS011;55557;49.220;11.150;2023-09-12T12:04:23;9.33;;;5.10;;
68583;SDS011;55557;49.220;11.150;2023-09-12T12:06:57;9.02;;;5.10;;
68583;SDS011;55557;49.220;11.150;2023-09-12T12:09:23;8.07;;;5.68;;
68583;SDS011;55557;49.220;11.150;2023-09-12T12:11:49;7.20;;;5.37;;
68583;SDS011;55557;49.220;11.150;2023-09-12T12:14:16;5.83;;;5.17;;
68583;SDS011;55557;49.220;11.150;2023-09-12T12:16:44;7.40;;;4.87;;
68583;SDS011;55557;49.220;11.150;2023-09-12T12:19:10;9.73;;;5.40;;
68583;SDS011;55557;49.220;11.150;2023-09-12T12:21:40;5.50;;;4.93;;
68583;SDS011;55557;49.220;11.150;2023-09-12T12:24:10;8.37;;;5.70;;
68583;SDS011;55557;49.220;11.150;2023-09-12T12:26:42;6.43;;;4.50;;
68583;SDS011;55557;49.220;11.150;2023-09-12T12:29:08;9.53;;;4.93;;
68583;SDS011;55557;49.220;11.150;2023-09-12T12:31:35;8.00;;;5.47;;
68583;SDS011;55557;49.220;11.150;2023-09-12T12:34:01;5.77;;;4.70;;
68583;SDS011;55557;49.220;11.150;2023-09-12T12:36:28;6.83;;;5.07;;
68583;SDS011;55557;49.220;11.150;2023-09-12T12:38:54;6.20;;;5.23;;
68583;SDS011;55557;49.220;11.150;2023-09-12T12:43:51;8.40;;;5.33;;
68583;SDS011;55557;49.220;11.150;2023-09-12T12:46:18;7.27;;;5.00;;
68583;SDS011;55557;49.220;11.150;2023-09-12T12:48:44;6.43;;;5.17;;
68583;SDS011;55557;49.220;11.150;2023-09-12T12:53:54;12.03;;;5.47;;
68583;SDS011;55557;49.220;11.150;2023-09-12T12:56:22;7.47;;;4.73;;
68583;SDS011;55557;49.220;11.150;2023-09-12T12:58:52;6.60;;;4.90;;
68583;SDS011;55557;49.220;11.150;2023-09-12T13:01:18;7.70;;;4.93;;
68583;SDS011;55557;49.220;11.150;2023-09-12T13:03:44;10.43;;;4.80;;
68583;SDS011;55557;49.220;11.150;2023-09-12T13:06:11;7.40;;;5.03;;
68583;SDS011;55557;49.220;11.150;2023-09-12T13:08:40;8.17;;;5.10;;
68583;SDS011;55557;49.220;11.150;2023-09-12T13:11:07;6.57;;;4.53;;
68583;SDS011;55557;49.220;11.150;2023-09-12T13:13:33;6.93;;;4.80;;
68583;SDS011;55557;49.220;11.150;2023-09-12T13:15:59;24.30;;;5.20;;
68583;SDS011;55557;49.220;11.150;2023-09-12T13:18:25;8.43;;;4.67;;
68583;SDS011;55557;49.220;11.150;2023-09-12T13:20:51;7.63;;;4.83;;
68583;SDS011;55557;49.220;11.150;2023-09-12T13:23:17;6.60;;;5.23;;
68583;SDS011;55557;49.220;11.150;2023-09-12T13:25:43;6.10;;;4.67;;
68583;SDS011;55557;49.220;11.150;2023-09-12T13:28:09;6.63;;;4.77;;
68583;SDS011;55557;49.220;11.150;2023-09-12T13:30:35;11.77;;;4.77;;
68583;SDS011;55557;49.220;11.150;2023-09-12T13:33:01;6.10;;;4.50;;
68583;SDS011;55557;49.220;11.150;2023-09-12T13:35:28;5.90;;;4.80;;
68583;SDS011;55557;49.220;11.150;2023-09-12T13:37:55;7.63;;;5.07;;
68583;SDS011;55557;49.220;11.150;2023-09-12T13:40:21;9.57;;;5.33;;
68583;SDS011;55557;49.220;11.150;2023-09-12T13:42:47;10.27;;;4.90;;
68583;SDS011;55557;49.220;11.150;2023-09-12T13:45:13;9.70;;;5.07;;
68583;SDS011;55557;49.220;11.150;2023-09-12T13:47:39;7.73;;;5.13;;
68583;SDS011;55557;49.220;11.150;2023-09-12T13:50:06;6.13;;;4.93;;
68583;SDS011;55557;49.220;11.150;2023-09-12T13:52:32;7.43;;;5.10;;
68583;SDS011;55557;49.220;11.150;2023-09-12T13:54:58;7.77;;;5.77;;
68583;SDS011;55557;49.220;11.150;2023-09-12T13:57:28;15.20;;;6.40;;
68583;SDS011;55557;49.220;11.150;2023-09-12T13:59:54;8.77;;;4.97;;
68583;SDS011;55557;49.220;11.150;2023-09-12T14:02:20;6.43;;;4.93;;
68583;SDS011;55557;49.220;11.150;2023-09-12T14:04:46;6.50;;;4.77;;
68583;SDS011;55557;49.220;11.150;2023-09-12T14:07:12;14.83;;;5.30;;
68583;SDS011;55557;49.220;11.150;2023-09-12T14:09:38;9.10;;;4.83;;
68583;SDS011;55557;49.220;11.150;2023-09-12T14:12:05;9.27;;;4.67;;
68583;SDS011;55557;49.220;11.150;2023-09-12T14:14:31;8.07;;;4.55;;
68583;SDS011;55557;49.220;11.150;2023-09-12T14:16:57;8.30;;;4.70;;
68583;SDS011;55557;49.220;11.150;2023-09-12T14:19:23;8.93;;;5.40;;
68583;SDS011;55557;49.220;11.150;2023-09-12T14:21:49;7.93;;;5.37;;
68583;SDS011;55557;49.220;11.150;2023-09-12T14:27:15;5.93;;;5.10;;
68583;SDS011;55557;49.220;11.150;2023-09-12T14:29:41;10.10;;;5.25;;
68583;SDS011;55557;49.220;11.150;2023-09-12T14:32:10;5.13;;;4.53;;
68583;SDS011;55557;49.220;11.150;2023-09-12T14:34:36;7.18;;;5.25;;
68583;SDS011;55557;49.220;11.150;2023-09-12T14:37:03;6.15;;;5.55;;
68583;SDS011;55557;49.220;11.150;2023-09-12T14:39:29;8.75;;;5.00;;
68583;SDS011;55557;49.220;11.150;2023-09-12T14:41:55;8.65;;;4.85;;
68583;SDS011;55557;49.220;11.150;2023-09-12T14:44:22;7.03;;;5.22;;
68583;SDS011;55557;49.220;11.150;2023-09-12T14:46:48;6.65;;;4.82;;
68583;SDS011;55557;49.220;11.150;2023-09-12T14:49:14;9.15;;;5.20;;
68583;SDS011;55557;49.220;11.150;2023-09-12T14:51:41;10.52;;;4.78;;
68583;SDS011;55557;49.220;11.150;2023-09-12T14:54:07;8.70;;;5.40;;
68583;SDS011;55557;49.220;11.150;2023-09-12T14:56:33;8.68;;;5.13;;
68583;SDS011;55557;49.220;11.150;2023-09-12T14:59:00;6.95;;;4.85;;
68583;SDS011;55557;49.220;11.150;2023-09-12T15:01:26;7.85;;;5.28;;